Time;durP1;ratioP1;P1;durP2;ratioP2;P2;SDS_P1;SDS_P2;PMS_P1;PMS_P2;Temp;Humidity;BMP_temperature;BMP_pressure;BME280_temperature;BME280_humidity;BME280_pressure;Samples;Min_cycle;Max_cycle;Signal;HPM_P1;HPM_P2
2023/03/10 00:02:19;;;;;;;4.88;2.50;;;;;;;7.16;100.00;91245.66;4956037;29;20035;-77
2023/03/10 00:04:49;;;;;;;5.20;2.30;;;;;;;7.18;100.00;91238.31;4955937;29;20050;-77
2023/03/10 00:07:15;;;;;;;4.43;2.17;;;;;;;7.30;100.00;91237.78;4955518;29;20047;-77
2023/03/10 00:09:41;;;;;;;3.72;1.80;;;;;;;7.46;100.00;91240.81;4938639;29;20027;-76
2023/03/10 00:12:07;;;;;;;3.90;1.73;;;;;;;7.60;100.00;91246.69;4952717;29;20055;-77
2023/03/10 00:14:32;;;;;;;5.55;2.05;;;;;;;7.49;100.00;91235.00;4935929;29;20130;-77
2023/03/10 00:16:58;;;;;;;4.35;2.10;;;;;;;7.49;100.00;91240.19;4918581;29;20123;-77
2023/03/10 00:19:25;;;;;;;5.18;2.17;;;;;;;7.42;100.00;91234.66;4936037;29;20358;-77
2023/03/10 00:21:51;;;;;;;6.13;1.95;;;;;;;7.37;100.00;91239.97;4918690;29;20079;-77
2023/03/10 00:24:17;;;;;;;5.07;1.98;;;;;;;7.39;100.00;91230.03;4936177;29;20054;-77
2023/03/10 00:26:44;;;;;;;4.85;1.70;;;;;;;7.41;100.00;91228.69;4935558;29;20571;-77
2023/03/10 00:29:11;;;;;;;3.67;1.52;;;;;;;7.68;100.00;91227.75;4919025;29;20051;-77
2023/03/10 00:31:37;;;;;;;6.35;1.85;;;;;;;7.62;100.00;91228.19;4935767;29;20397;-77
2023/03/10 00:34:03;;;;;;;6.75;2.17;;;;;;;7.72;100.00;91238.34;4918092;29;20111;-77
2023/03/10 00:36:31;;;;;;;5.65;2.08;;;;;;;7.62;100.00;91236.75;4935467;29;20133;-77
2023/03/10 00:38:59;;;;;;;5.68;1.75;;;;;;;7.61;100.00;91245.66;4918938;29;20044;-77
2023/03/10 00:41:31;;;;;;;5.47;2.10;;;;;;;7.67;100.00;91251.50;4935963;29;20514;-77
2023/03/10 00:43:57;;;;;;;4.47;1.90;;;;;;;7.69;100.00;91244.91;4918731;29;20039;-77
2023/03/10 00:46:24;;;;;;;3.53;1.52;;;;;;;7.63;100.00;91240.91;4903402;29;20034;-77
2023/03/10 00:48:50;;;;;;;6.75;1.95;;;;;;;7.60;100.00;91241.50;4902994;29;20048;-77
2023/03/10 00:51:17;;;;;;;5.68;1.83;;;;;;;7.60;100.00;91240.72;4919001;29;20087;-77
2023/03/10 00:53:43;;;;;;;5.75;1.63;;;;;;;7.54;100.00;91234.09;4918520;29;20090;-77
2023/03/10 00:56:23;;;;;;;6.63;1.83;;;;;;;7.48;100.00;91231.63;4918948;29;20528;-77
2023/03/10 00:58:51;;;;;;;4.40;1.95;;;;;;;7.46;100.00;91219.97;4918802;29;20059;-77
2023/03/10 01:01:21;;;;;;;7.82;2.20;;;;;;;7.51;100.00;91217.25;4918960;29;20066;-77
2023/03/10 01:03:49;;;;;;;4.53;1.83;;;;;;;7.52;100.00;91224.00;4903246;29;20043;-77
2023/03/10 01:06:17;;;;;;;5.53;2.05;;;;;;;7.55;100.00;91222.63;4903525;29;20040;-77
2023/03/10 01:08:43;;;;;;;6.93;2.10;;;;;;;7.60;100.00;91217.28;4918920;29;20481;-77
2023/03/10 01:11:09;;;;;;;5.90;1.95;;;;;;;7.57;100.00;91210.84;4935213;29;20036;-77
2023/03/10 01:13:35;;;;;;;7.85;2.35;;;;;;;7.54;100.00;91203.63;4918553;29;20078;-77
2023/03/10 01:16:01;;;;;;;4.82;1.80;;;;;;;7.75;100.00;91195.31;4935503;29;20067;-77
2023/03/10 01:18:26;;;;;;;7.47;1.92;;;;;;;7.71;100.00;91195.91;4918572;29;20564;-77
2023/03/10 01:20:52;;;;;;;4.45;2.20;;;;;;;7.68;100.00;91193.91;4935256;29;20134;-77
2023/03/10 01:23:21;;;;;;;5.63;1.80;;;;;;;7.79;100.00;91193.63;4918613;29;20094;-77
2023/03/10 01:25:48;;;;;;;6.53;2.35;;;;;;;7.75;100.00;91190.09;4935253;29;20406;-77
2023/03/10 01:28:14;;;;;;;4.40;2.00;;;;;;;7.76;100.00;91189.78;4918243;29;20057;-77
2023/03/10 01:30:41;;;;;;;5.80;1.90;;;;;;;7.68;100.00;91186.09;4918232;29;20039;-77
2023/03/10 01:33:08;;;;;;;4.65;1.65;;;;;;;7.77;100.00;91187.94;4935496;29;20039;-77
2023/03/10 01:35:35;;;;;;;6.45;2.08;;;;;;;7.65;100.00;91189.28;4918429;29;20122;-77
2023/03/10 01:38:01;;;;;;;5.60;1.90;;;;;;;7.66;100.00;91183.00;4918855;29;20121;-77
2023/03/10 01:40:27;;;;;;;4.93;1.67;;;;;;;7.58;100.00;91177.75;4918635;29;20060;-77
2023/03/10 01:43:14;;;;;;;5.38;1.90;;;;;;;7.54;100.00;91176.81;4936024;29;20043;-77
2023/03/10 01:45:39;;;;;;;7.43;2.00;;;;;;;7.52;100.00;91177.13;4920894;29;20040;-77
2023/03/10 01:48:05;;;;;;;4.65;1.90;;;;;;;7.53;100.00;91173.44;4922663;29;20027;-77
2023/03/10 01:50:31;;;;;;;5.10;1.75;;;;;;;7.51;100.00;91171.13;4922369;29;20044;-77
2023/03/10 01:52:57;;;;;;;5.85;1.83;;;;;;;7.48;100.00;91161.31;4939664;29;20032;-77
2023/03/10 01:55:30;;;;;;;5.38;1.83;;;;;;;7.49;100.00;91159.47;4922368;29;20047;-77
2023/03/10 01:57:56;;;;;;;5.68;1.90;;;;;;;7.50;100.00;91155.81;4939527;29;20036;-77
2023/03/10 02:00:25;;;;;;;2.65;1.48;;;;;;;7.61;100.00;91154.50;4939533;29;20050;-76
2023/03/10 02:02:59;;;;;;;7.00;2.63;;;;;;;7.56;100.00;91141.59;4922551;29;20027;-77
2023/03/10 02:05:27;;;;;;;5.88;1.75;;;;;;;7.63;100.00;91147.16;4939238;29;20102;-77
2023/03/10 02:07:54;;;;;;;3.90;1.60;;;;;;;7.59;100.00;91129.81;4921938;29;20044;-77
2023/03/10 02:10:20;;;;;;;6.38;2.08;;;;;;;7.62;100.00;91137.03;4938470;29;20107;-77
2023/03/10 02:12:47;;;;;;;5.55;1.88;;;;;;;7.76;100.00;91134.31;4903182;29;20048;-77
2023/03/10 02:15:13;;;;;;;5.07;1.70;;;;;;;7.68;100.00;91123.56;4918857;29;20047;-77
2023/03/10 02:17:40;;;;;;;3.63;1.60;;;;;;;7.62;100.00;91106.53;4920501;29;20040;-77
2023/03/10 02:20:15;;;;;;;3.22;1.45;;;;;;;7.63;100.00;91108.09;4919124;29;20024;-78
2023/03/10 02:22:41;;;;;;;6.82;2.22;;;;;;;7.62;100.00;91116.19;4920082;29;20115;-77
2023/03/10 02:25:19;;;;;;;6.50;1.75;;;;;;;7.62;100.00;91119.56;4919062;29;20055;-76
2023/03/10 02:27:46;;;;;;;5.97;1.90;;;;;;;7.59;100.00;91112.34;4919501;29;20119;-77
2023/03/10 02:30:13;;;;;;;4.63;1.73;;;;;;;7.57;100.00;91100.72;4920044;29;20039;-77
2023/03/10 02:32:47;;;;;;;6.97;1.95;;;;;;;7.55;100.00;91095.03;4918724;29;20173;-77
2023/03/10 02:35:13;;;;;;;4.38;1.60;;;;;;;7.52;100.00;91104.22;4920033;29;20421;-77
2023/03/10 02:37:49;;;;;;;7.13;2.20;;;;;;;7.49;100.00;91099.59;4918426;29;20589;-77
2023/03/10 02:40:39;;;;;;;4.90;1.75;;;;;;;7.49;100.00;91097.00;4919117;29;20506;-77
2023/03/10 02:43:34;;;;;;;5.95;2.05;;;;;;;7.47;100.00;91104.31;4919074;29;20096;-77
2023/03/10 02:46:11;;;;;;;4.32;1.60;;;;;;;7.46;100.00;91105.41;4904525;29;20601;-77
2023/03/10 02:48:40;;;;;;;5.18;1.55;;;;;;;7.47;100.00;91101.72;4918818;29;20044;-77
2023/03/10 02:51:32;;;;;;;6.97;1.83;;;;;;;7.47;100.00;91099.13;4918551;29;20117;-77
2023/03/10 02:54:02;;;;;;;5.43;1.92;;;;;;;7.49;100.00;91099.59;4919024;29;20405;-77
2023/03/10 02:56:31;;;;;;;5.25;2.05;;;;;;;7.54;100.00;91089.03;4918007;29;20040;-77
2023/03/10 02:58:58;;;;;;;6.22;2.13;;;;;;;7.55;100.00;91084.63;4918465;29;20036;-77
2023/03/10 03:01:25;;;;;;;5.45;2.00;;;;;;;7.55;100.00;91074.19;4917980;29;20040;-77
2023/03/10 03:03:52;;;;;;;5.35;1.90;;;;;;;7.56;100.00;91071.28;4918123;29;20059;-77
2023/03/10 03:06:18;;;;;;;4.22;1.63;;;;;;;7.51;100.00;91061.00;4902190;29;20123;-77
2023/03/10 03:08:44;;;;;;;5.22;1.80;;;;;;;7.54;100.00;91065.59;4902399;29;20520;-77
2023/03/10 03:11:14;;;;;;;4.95;1.80;;;;;;;7.51;100.00;91055.78;4918027;29;20043;-78
2023/03/10 03:13:40;;;;;;;4.22;1.63;;;;;;;7.54;100.00;91055.19;4918461;29;20050;-77
2023/03/10 03:16:07;;;;;;;4.32;1.60;;;;;;;7.45;100.00;91049.19;4918473;29;20413;-77
2023/03/10 03:18:33;;;;;;;6.35;1.77;;;;;;;7.43;100.00;91052.09;4918509;29;20055;-77
2023/03/10 03:21:04;;;;;;;7.10;1.90;;;;;;;7.38;100.00;91044.41;4918481;29;20040;-77
2023/03/10 03:23:31;;;;;;;6.28;1.88;;;;;;;7.34;100.00;91035.69;4919014;29;20032;-77
2023/03/10 03:25:56;;;;;;;4.50;1.80;;;;;;;7.29;100.00;91039.19;4918112;29;20479;-77
2023/03/10 03:28:22;;;;;;;5.90;2.28;;;;;;;7.23;100.00;91035.19;4902522;29;20032;-77
2023/03/10 03:30:50;;;;;;;4.00;1.60;;;;;;;7.22;100.00;91020.63;4918612;29;20127;-78
2023/03/10 03:33:16;;;;;;;5.07;1.80;;;;;;;7.19;100.00;91008.22;4918241;29;20055;-78
2023/03/10 03:35:43;;;;;;;4.50;1.58;;;;;;;7.21;100.00;91003.47;4887391;29;20235;-78
2023/03/10 03:38:09;;;;;;;5.82;2.00;;;;;;;7.17;100.00;90999.94;4902460;29;20079;-78
2023/03/10 03:40:36;;;;;;;5.10;1.90;;;;;;;7.14;100.00;91003.16;4902479;29;20055;-77
2023/03/10 03:43:04;;;;;;;5.15;1.90;;;;;;;7.13;100.00;91000.84;4887617;29;20119;-77
2023/03/10 03:45:31;;;;;;;4.82;1.70;;;;;;;7.10;100.00;90989.19;4902256;29;20117;-77
2023/03/10 03:47:58;;;;;;;5.60;1.98;;;;;;;7.10;100.00;90981.41;4918229;29;20024;-78
2023/03/10 03:50:25;;;;;;;6.75;2.00;;;;;;;7.14;100.00;90973.75;4917894;29;20486;-78
2023/03/10 03:52:54;;;;;;;7.60;1.90;;;;;;;7.11;100.00;90979.56;4917502;29;20051;-78
2023/03/10 03:55:22;;;;;;;6.55;1.73;;;;;;;7.07;100.00;90982.00;4917005;29;20087;-78
2023/03/10 03:57:50;;;;;;;5.03;1.85;;;;;;;7.06;100.00;90975.25;4918162;29;20124;-78
2023/03/10 04:00:19;;;;;;;7.47;2.05;;;;;;;7.07;100.00;90971.59;4917933;29;20119;-77
2023/03/10 04:02:48;;;;;;;5.53;1.90;;;;;;;7.08;100.00;90960.09;4917375;29;20036;-77
2023/03/10 04:05:14;;;;;;;5.13;2.00;;;;;;;7.07;100.00;90961.94;4918525;29;20048;-78
2023/03/10 04:07:41;;;;;;;6.43;2.10;;;;;;;7.06;100.00;90951.84;4902050;29;20802;-77
2023/03/10 04:10:12;;;;;;;5.43;2.13;;;;;;;7.06;100.00;90957.03;4917249;29;20032;-78
2023/03/10 04:12:37;;;;;;;5.85;2.20;;;;;;;7.04;100.00;90952.13;4925795;29;20047;-77
2023/03/10 04:15:04;;;;;;;6.35;2.30;;;;;;;7.08;100.00;90949.69;4920921;29;20047;-77
2023/03/10 04:17:30;;;;;;;7.00;2.25;;;;;;;7.07;100.00;90953.38;4920740;29;20106;-78
2023/03/10 04:19:55;;;;;;;5.00;2.08;;;;;;;7.06;100.00;90952.59;4920543;29;20104;-77
2023/03/10 04:22:21;;;;;;;6.88;2.28;;;;;;;7.08;100.00;90950.47;4904442;29;20078;-78
2023/03/10 04:24:48;;;;;;;5.53;2.28;;;;;;;7.08;100.00;90947.88;4921140;29;20034;-77
2023/03/10 04:27:13;;;;;;;4.15;2.08;;;;;;;7.09;100.00;90946.81;4937431;29;20044;-77
2023/03/10 04:29:39;;;;;;;5.30;2.10;;;;;;;7.10;100.00;90947.56;4914212;29;20508;-78
2023/03/10 04:32:05;;;;;;;5.43;2.15;;;;;;;7.09;100.00;90940.81;4939112;29;20043;-77
2023/03/10 04:34:32;;;;;;;4.93;1.80;;;;;;;7.11;100.00;90930.13;4939140;29;20055;-78
2023/03/10 04:36:58;;;;;;;4.85;2.05;;;;;;;7.09;100.00;90927.81;4939568;29;20039;-77
2023/03/10 04:39:24;;;;;;;4.95;1.75;;;;;;;7.38;100.00;90923.91;4956904;29;20485;-77
2023/03/10 04:41:49;;;;;;;5.88;2.40;;;;;;;7.34;100.00;90931.56;4939185;29;20115;-78
2023/03/10 04:44:15;;;;;;;5.28;2.35;;;;;;;7.32;100.00;90933.69;4939026;29;20020;-77
2023/03/10 04:46:41;;;;;;;5.90;2.50;;;;;;;7.25;100.00;90933.34;4938857;29;20039;-78
2023/03/10 04:49:08;;;;;;;7.63;3.58;;;;;;;7.27;100.00;90931.22;4938763;29;20401;-78
2023/03/10 04:51:33;;;;;;;8.18;3.90;;;;;;;7.25;100.00;90922.94;4955142;29;20102;-77
2023/03/10 04:53:59;;;;;;;7.60;3.90;;;;;;;7.23;100.00;90920.66;4938718;29;20049;-77
2023/03/10 04:56:28;;;;;;;6.60;3.55;;;;;;;7.20;100.00;90915.28;4939294;29;20422;-77
2023/03/10 04:58:54;;;;;;;7.07;3.67;;;;;;;7.06;100.00;90918.00;4939003;29;20042;-77
2023/03/10 05:01:20;;;;;;;5.05;2.83;;;;;;;7.13;100.00;90915.72;4938960;29;20055;-77
2023/03/10 05:03:50;;;;;;;6.95;3.50;;;;;;;7.04;100.00;90899.34;4938885;29;20038;-77
2023/03/10 05:06:18;;;;;;;7.28;3.03;;;;;;;7.05;100.00;90903.47;4938782;29;20090;-78
2023/03/10 05:08:49;;;;;;;5.82;2.47;;;;;;;7.02;100.00;90898.88;4938594;29;20027;-77
2023/03/10 05:11:17;;;;;;;7.32;2.50;;;;;;;7.24;100.00;90911.78;4946335;28;20475;-77
2023/03/10 05:13:43;;;;;;;5.32;2.35;;;;;;;7.09;100.00;90899.19;4974532;28;20038;-78
2023/03/10 05:16:19;;;;;;;5.82;2.42;;;;;;;7.12;100.00;90897.84;4975159;28;20042;-77
2023/03/10 05:18:46;;;;;;;5.93;2.00;;;;;;;6.97;100.00;90891.22;4973637;28;20133;-77
2023/03/10 05:21:14;;;;;;;7.70;2.92;;;;;;;7.02;100.00;90891.06;4973705;28;20026;-78
2023/03/10 05:23:41;;;;;;;6.53;2.90;;;;;;;6.96;100.00;90890.44;4973811;28;20129;-76
2023/03/10 05:26:09;;;;;;;8.02;2.58;;;;;;;6.95;100.00;90898.53;4957220;28;20034;-77
2023/03/10 05:28:35;;;;;;;5.82;2.97;;;;;;;6.95;100.00;90886.28;4957722;28;20034;-78
2023/03/10 05:31:07;;;;;;;7.65;2.85;;;;;;;7.02;100.00;90881.41;4973653;28;20118;-78
2023/03/10 05:33:33;;;;;;;6.40;2.80;;;;;;;6.93;100.00;90870.22;4973277;28;20039;-78
2023/03/10 05:36:04;;;;;;;8.93;2.90;;;;;;;6.98;100.00;90869.31;4973706;28;20049;-77
2023/03/10 05:38:29;;;;;;;7.10;2.67;;;;;;;7.05;100.00;90867.06;4973812;28;20046;-77
2023/03/10 05:40:55;;;;;;;5.88;2.65;;;;;;;6.92;100.00;90867.94;4957197;28;20423;-78
2023/03/10 05:43:21;;;;;;;6.18;3.10;;;;;;;6.85;100.00;90861.34;4969172;28;20047;-79
2023/03/10 05:46:08;;;;;;;5.40;3.20;;;;;;;6.83;100.00;90863.47;4969262;28;20477;-79
2023/03/10 05:48:41;;;;;;;7.43;3.85;;;;;;;6.81;100.00;90855.22;4955177;28;20023;-83
2023/03/10 05:51:10;;;;;;;7.40;3.47;;;;;;;6.81;100.00;90847.41;4959530;28;20043;-81
2023/03/10 05:53:37;;;;;;;6.38;3.70;;;;;;;6.85;100.00;90848.34;4968462;28;20523;-81
2023/03/10 05:56:17;;;;;;;6.88;3.72;;;;;;;7.12;100.00;90843.94;4993774;28;20113;-82
2023/03/10 05:58:46;;;;;;;7.05;3.28;;;;;;;7.08;100.00;90846.38;4978547;28;20027;-83
2023/03/10 06:01:14;;;;;;;6.88;3.50;;;;;;;7.05;100.00;90846.25;4981629;28;20536;-82
2023/03/10 06:03:40;;;;;;;5.05;2.85;;;;;;;6.91;100.00;90832.56;4967501;28;20039;-82
2023/03/10 06:06:13;;;;;;;6.45;2.67;;;;;;;6.94;100.00;90824.19;4985092;28;20046;-83
2023/03/10 06:08:38;;;;;;;7.25;3.05;;;;;;;6.91;100.00;90819.56;4962010;28;20035;-83
2023/03/10 06:11:05;;;;;;;7.85;3.05;;;;;;;6.83;100.00;90814.06;4964163;28;20505;-82
2023/03/10 06:13:31;;;;;;;7.07;3.10;;;;;;;6.78;100.00;90814.22;4989170;28;20050;-82
2023/03/10 06:15:59;;;;;;;7.25;3.17;;;;;;;6.78;100.00;90816.06;4975047;28;20066;-83
2023/03/10 06:18:26;;;;;;;7.07;3.33;;;;;;;6.72;100.00;90820.63;4964832;28;20031;-80
2023/03/10 06:20:53;;;;;;;6.78;3.47;;;;;;;6.79;100.00;90810.53;4976959;28;20050;-80
2023/03/10 06:23:22;;;;;;;7.45;3.80;;;;;;;6.79;100.00;90813.13;4958330;28;20082;-81
2023/03/10 06:25:58;;;;;;;7.47;3.83;;;;;;;6.75;100.00;90812.19;4976218;28;20401;-86
2023/03/10 06:28:25;;;;;;;5.93;3.47;;;;;;;6.73;100.00;90811.72;4971799;28;20043;-83
2023/03/10 06:31:04;;;;;;;7.85;3.53;;;;;;;6.77;100.00;90814.50;4970914;28;20039;-82
2023/03/10 06:33:30;;;;;;;6.97;3.63;;;;;;;6.77;100.00;90819.69;4960132;29;20031;-83
2023/03/10 06:35:56;;;;;;;7.00;3.40;;;;;;;6.86;100.00;90817.88;4967835;28;20033;-83
2023/03/10 06:38:24;;;;;;;7.63;3.60;;;;;;;6.77;100.00;90823.06;4978394;28;20034;-83
2023/03/10 06:40:50;;;;;;;6.43;3.90;;;;;;;6.73;100.00;90814.31;4976900;28;20035;-82
2023/03/10 06:43:16;;;;;;;6.00;3.55;;;;;;;6.76;100.00;90829.34;4975086;28;20531;-82
2023/03/10 06:45:43;;;;;;;7.20;3.78;;;;;;;6.75;100.00;90832.25;4977589;28;20030;-81
2023/03/10 06:48:09;;;;;;;6.20;3.60;;;;;;;6.79;100.00;90839.13;4977892;28;20066;-81
2023/03/10 06:50:42;;;;;;;6.28;3.38;;;;;;;6.79;100.00;90836.53;4976164;28;20402;-82
2023/03/10 06:53:08;;;;;;;7.85;3.50;;;;;;;6.64;100.00;90829.16;4971246;28;20039;-82
2023/03/10 06:55:34;;;;;;;7.00;3.58;;;;;;;6.74;100.00;90841.88;4976425;28;20073;-82
2023/03/10 06:58:00;;;;;;;6.53;3.15;;;;;;;6.81;100.00;90842.19;4975917;28;20519;-82
2023/03/10 07:00:25;;;;;;;9.30;3.45;;;;;;;6.84;100.00;90841.59;4985672;28;20030;-81
2023/03/10 07:02:51;;;;;;;5.40;3.10;;;;;;;6.88;100.00;90833.94;4977048;28;20031;-82
2023/03/10 07:05:16;;;;;;;6.50;2.90;;;;;;;6.90;100.00;90831.06;4976781;28;20045;-82
2023/03/10 07:07:42;;;;;;;6.95;3.67;;;;;;;7.01;100.00;90809.66;4977726;28;20039;-82
2023/03/10 07:10:08;;;;;;;5.78;2.90;;;;;;;6.98;100.00;90809.47;4977304;28;20078;-83
2023/03/10 07:12:34;;;;;;;4.93;3.08;;;;;;;7.04;100.00;90792.66;4977418;28;20066;-82
2023/03/10 07:14:59;;;;;;;7.03;3.03;;;;;;;6.88;100.00;90798.28;4977726;28;20041;-83
2023/03/10 07:17:25;;;;;;;6.50;3.42;;;;;;;6.77;100.00;90799.66;4960435;28;20386;-83
2023/03/10 07:19:51;;;;;;;6.50;3.30;;;;;;;6.65;100.00;90797.66;4977637;28;20037;-83
2023/03/10 07:22:16;;;;;;;5.88;3.10;;;;;;;6.75;100.00;90801.78;4977522;28;20443;-83
2023/03/10 07:24:42;;;;;;;7.53;3.67;;;;;;;6.67;100.00;90823.34;4975822;28;20041;-82
2023/03/10 07:27:07;;;;;;;7.28;3.40;;;;;;;6.65;100.00;90817.69;4976699;28;20413;-83
2023/03/10 07:29:33;;;;;;;6.18;3.22;;;;;;;6.70;100.00;90832.38;4975963;28;20038;-83
2023/03/10 07:31:59;;;;;;;6.68;3.30;;;;;;;6.71;100.00;90833.91;4976201;28;20039;-84
2023/03/10 07:34:25;;;;;;;6.20;3.58;;;;;;;6.75;100.00;90820.00;4992447;28;20374;-82
2023/03/10 07:36:50;;;;;;;6.82;3.70;;;;;;;6.79;100.00;90810.53;4976372;28;20063;-84
2023/03/10 07:39:16;;;;;;;8.75;4.13;;;;;;;6.81;100.00;90820.63;4976203;28;20043;-83
2023/03/10 07:41:41;;;;;;;6.85;3.40;;;;;;;6.79;100.00;90818.31;4976013;28;20093;-83
2023/03/10 07:44:08;;;;;;;6.05;3.55;;;;;;;6.81;100.00;90826.59;4975598;28;20023;-82
2023/03/10 07:46:33;;;;;;;7.20;3.65;;;;;;;6.81;100.00;90829.19;4977248;28;20050;-83
2023/03/10 07:49:03;;;;;;;6.68;3.60;;;;;;;6.81;100.00;90826.59;4977086;28;20038;-83
2023/03/10 07:51:29;;;;;;;5.47;3.25;;;;;;;6.83;100.00;90827.06;4959813;28;20031;-82
2023/03/10 07:53:55;;;;;;;7.07;3.88;;;;;;;6.91;100.00;90820.34;4976583;28;20025;-83
2023/03/10 07:56:20;;;;;;;9.30;3.95;;;;;;;6.94;100.00;90808.56;4975979;28;20042;-82
2023/03/10 07:58:46;;;;;;;6.53;3.90;;;;;;;7.15;100.00;90809.50;4976634;28;20061;-82
2023/03/10 08:01:17;;;;;;;7.97;4.60;;;;;;;7.27;100.00;90809.69;4975208;28;20553;-83
2023/03/10 08:03:44;;;;;;;7.68;4.28;;;;;;;7.23;100.00;90808.00;4959153;28;20070;-82
2023/03/10 08:06:16;;;;;;;7.88;4.68;;;;;;;7.25;100.00;90806.63;4975921;28;20077;-82
2023/03/10 08:08:42;;;;;;;;;;;;;;;7.30;100.00;90811.66;4976872;28;20488;-82
2023/03/10 08:11:09;;;;;;;6.53;4.10;;;;;;;7.38;100.00;90812.72;4975032;28;19932;-83
2023/03/10 08:13:35;;;;;;;5.97;3.88;;;;;;;7.43;100.00;90814.41;4975676;28;20043;-83
2023/03/10 08:16:02;;;;;;;6.80;3.10;;;;;;;7.56;100.00;90805.66;4974904;28;20592;-82
2023/03/10 08:18:29;;;;;;;7.93;3.47;;;;;;;7.38;100.00;90801.53;4975202;28;20039;-83
2023/03/10 08:20:55;;;;;;;5.57;2.88;;;;;;;7.27;100.00;90814.88;4975131;28;20030;-83
2023/03/10 08:23:21;;;;;;;4.47;2.40;;;;;;;7.13;100.00;90801.22;4975423;28;20531;-83
2023/03/10 08:25:46;;;;;;;4.32;2.30;;;;;;;6.97;100.00;90813.16;4976305;28;20030;-83
2023/03/10 08:28:12;;;;;;;5.20;2.35;;;;;;;7.15;100.00;90799.09;4975563;28;20042;-83
2023/03/10 08:30:38;;;;;;;5.50;2.47;;;;;;;7.03;100.00;90807.50;4976053;28;20046;-83
2023/03/10 08:33:07;;;;;;;5.70;2.50;;;;;;;6.99;100.00;90816.22;4975538;28;20043;-83
2023/03/10 08:35:34;;;;;;;5.43;2.80;;;;;;;6.95;100.00;90807.50;4974955;28;20547;-83
2023/03/10 08:38:00;;;;;;;5.20;2.60;;;;;;;6.94;100.00;90798.16;4976772;28;20405;-82
2023/03/10 08:40:25;;;;;;;5.25;2.80;;;;;;;6.96;100.00;90793.41;4958455;28;20027;-81
2023/03/10 08:42:51;;;;;;;6.80;3.70;;;;;;;6.98;100.00;90791.28;4973245;28;20038;-82
2023/03/10 08:45:17;;;;;;;7.65;3.58;;;;;;;7.00;100.00;90812.53;4990964;28;20026;-82
2023/03/10 08:47:42;;;;;;;5.78;3.60;;;;;;;7.14;100.00;90809.81;4990850;28;20042;-83
2023/03/10 08:50:10;;;;;;;5.30;3.40;;;;;;;7.08;100.00;90807.34;4974945;28;20401;-83
2023/03/10 08:52:35;;;;;;;6.10;3.85;;;;;;;7.01;100.00;90812.25;4973779;28;20034;-83
2023/03/10 08:55:03;;;;;;;7.93;4.43;;;;;;;7.03;100.00;90807.50;4992208;28;20037;-82
2023/03/10 08:57:29;;;;;;;5.88;3.60;;;;;;;7.09;100.00;90826.31;4993810;28;20101;-82
2023/03/10 08:59:55;;;;;;;8.13;4.25;;;;;;;7.14;100.00;90823.59;4994132;28;20034;-83
2023/03/10 09:02:21;;;;;;;6.13;4.07;;;;;;;7.21;100.00;90826.50;4995071;28;20393;-83
2023/03/10 09:04:47;;;;;;;7.47;4.13;;;;;;;7.36;100.00;90829.72;4994716;28;20038;-83
2023/03/10 09:07:13;;;;;;;8.70;3.92;;;;;;;7.50;100.00;90832.94;4977621;28;20042;-83
2023/03/10 09:09:38;;;;;;;6.35;3.75;;;;;;;7.63;100.00;90826.03;4993835;28;20435;-82
2023/03/10 09:12:07;;;;;;;7.22;4.55;;;;;;;7.80;100.00;90825.25;4994564;28;20046;-82
2023/03/10 09:14:34;;;;;;;8.52;4.88;;;;;;;7.87;100.00;90828.16;4994039;28;20555;-83
2023/03/10 09:17:01;;;;;;;7.68;4.45;;;;;;;7.97;100.00;90833.06;4994796;28;20046;-82
2023/03/10 09:19:26;;;;;;;7.32;4.45;;;;;;;7.99;100.00;90843.91;4995159;28;20053;-83
2023/03/10 09:21:54;;;;;;;7.75;4.10;;;;;;;8.27;100.00;90833.88;4994862;28;20050;-83
2023/03/10 09:24:19;;;;;;;6.70;4.07;;;;;;;8.14;100.00;90833.00;4993831;28;20418;-83
2023/03/10 09:26:45;;;;;;;8.63;4.57;;;;;;;8.28;100.00;90837.25;4994731;28;20042;-82
2023/03/10 09:29:11;;;;;;;7.72;4.60;;;;;;;8.41;100.00;90836.31;4993150;28;20081;-81
2023/03/10 09:31:38;;;;;;;9.10;4.70;;;;;;;8.67;100.00;90841.44;4994415;28;20397;-82
2023/03/10 09:34:04;;;;;;;7.40;4.28;;;;;;;8.66;100.00;90845.13;4994343;28;20536;-82
2023/03/10 09:36:31;;;;;;;7.35;4.22;;;;;;;8.73;100.00;90844.63;4994760;28;20092;-83
2023/03/10 09:38:58;;;;;;;7.05;4.40;;;;;;;8.80;100.00;90847.50;4993328;28;20038;-81
2023/03/10 09:41:33;;;;;;;6.55;3.40;;;;;;;8.53;100.00;90852.09;4994262;28;20039;-82
2023/03/10 09:44:18;;;;;;;3.47;2.22;;;;;;;8.04;100.00;90856.03;4986919;28;20031;-82
2023/03/10 09:46:55;;;;;;;3.95;2.10;;;;;;;7.72;100.00;90858.84;4974950;28;20509;-81
2023/03/10 09:49:36;;;;;;;6.10;2.25;;;;;;;7.29;100.00;90861.41;4979477;28;20031;-81
2023/03/10 09:52:24;;;;;;;2.90;1.70;;;;;;;7.36;100.00;90860.97;4976184;28;20035;-81
2023/03/10 09:55:05;;;;;;;2.83;1.83;;;;;;;7.50;100.00;90859.00;4948742;29;20050;-83
2023/03/10 09:57:32;;;;;;;4.53;2.65;;;;;;;7.42;100.00;90849.31;4968179;28;20480;-83
2023/03/10 10:00:01;;;;;;;4.35;2.50;;;;;;;7.49;100.00;90841.81;4973518;28;20037;-81
2023/03/10 10:02:35;;;;;;;4.47;1.98;;;;;;;7.60;100.00;90848.25;4971626;28;20078;-82
2023/03/10 10:05:10;;;;;;;3.38;1.88;;;;;;;7.82;100.00;90841.34;4956311;28;20031;-83
2023/03/10 10:07:50;;;;;;;3.90;1.92;;;;;;;7.67;100.00;90830.31;4960995;28;20050;-82
2023/03/10 10:10:23;;;;;;;5.65;1.70;;;;;;;7.44;100.00;90821.16;4978528;28;20034;-80
2023/03/10 10:12:51;;;;;;;3.08;2.10;;;;;;;7.27;100.00;90824.50;4977339;28;20043;-81
2023/03/10 10:15:21;;;;;;;5.80;2.70;;;;;;;7.04;100.00;90835.03;4961305;28;20166;-82
2023/03/10 10:18:13;;;;;;;3.65;2.17;;;;;;;7.17;100.00;90841.19;4961803;28;20403;-82
2023/03/10 10:20:41;;;;;;;3.70;1.95;;;;;;;7.41;100.00;90834.78;4958075;29;20035;-82
2023/03/10 10:23:18;;;;;;;3.58;2.00;;;;;;;7.59;100.00;90825.91;4958095;29;20033;-82
2023/03/10 10:25:44;;;;;;;3.20;1.90;;;;;;;7.72;100.00;90811.94;4969148;28;20530;-82
2023/03/10 10:28:22;;;;;;;3.75;2.17;;;;;;;7.85;100.00;90791.22;4976655;28;20031;-81
2023/03/10 10:30:48;;;;;;;4.43;2.30;;;;;;;8.11;100.00;90784.09;4977678;28;20039;-81
2023/03/10 10:33:15;;;;;;;3.47;2.00;;;;;;;8.04;100.00;90803.91;4973275;28;20038;-81
2023/03/10 10:35:45;;;;;;;3.38;1.90;;;;;;;8.12;100.00;90809.09;4974097;28;20117;-82
2023/03/10 10:38:10;;;;;;;3.58;2.05;;;;;;;8.48;100.00;90810.53;4979260;28;20022;-83
2023/03/10 10:40:49;;;;;;;4.55;1.98;;;;;;;8.92;100.00;90812.94;4995696;28;20113;-82
2023/03/10 10:43:17;;;;;;;4.78;2.50;;;;;;;9.24;100.00;90810.72;4984506;28;20035;-83
2023/03/10 10:45:43;;;;;;;3.28;2.15;;;;;;;9.55;100.00;90802.50;4976998;28;20508;-83
2023/03/10 10:48:34;;;;;;;5.38;3.30;;;;;;;9.96;100.00;90808.75;4975181;28;20039;-82
2023/03/10 10:51:00;;;;;;;5.70;3.03;;;;;;;10.32;100.00;90807.34;4974507;28;20066;-82
2023/03/10 10:53:33;;;;;;;5.80;3.08;;;;;;;10.28;100.00;90801.19;4966963;28;20065;-82
2023/03/10 10:56:02;;;;;;;4.32;2.58;;;;;;;10.08;100.00;90806.16;4973746;28;20054;-82
2023/03/10 10:58:39;;;;;;;8.15;3.83;;;;;;;10.11;100.00;90809.97;4976404;28;20027;-81
2023/03/10 11:01:13;;;;;;;4.30;2.55;;;;;;;10.06;100.00;90810.19;4976612;28;20027;-81
2023/03/10 11:03:45;;;;;;;6.05;2.30;;;;;;;9.84;100.00;90813.94;4972959;28;20038;-82
2023/03/10 11:06:13;;;;;;;4.15;2.95;;;;;;;10.00;100.00;90812.25;4975585;28;20041;-82
2023/03/10 11:08:44;;;;;;;5.03;2.30;;;;;;;10.07;100.00;90802.03;4975087;28;20070;-81
2023/03/10 11:11:31;;;;;;;3.97;2.22;;;;;;;10.14;100.00;90802.25;4977245;28;20081;-82
2023/03/10 11:14:22;;;;;;;3.95;1.85;;;;;;;9.78;100.00;90805.53;4974309;28;20582;-81
2023/03/10 11:17:29;;;;;;;4.17;2.10;;;;;;;9.58;100.00;90801.88;4948526;28;20045;-82
2023/03/10 11:19:55;;;;;;;6.50;2.58;;;;;;;9.60;100.00;90810.16;4973304;28;20043;-83
2023/03/10 11:22:38;;;;;;;3.90;2.20;;;;;;;10.09;100.00;90796.50;4976029;28;20034;-81
2023/03/10 11:25:25;;;;;;;4.57;2.30;;;;;;;10.96;100.00;90801.47;4958476;29;20035;-77
2023/03/10 11:28:21;;;;;;;4.65;2.35;;;;;;;11.59;100.00;90803.63;4958802;29;20034;-78
2023/03/10 11:31:22;;;;;;;5.25;2.30;;;;;;;11.80;100.00;90813.97;4957052;29;20131;-76
2023/03/10 11:34:15;;;;;;;4.45;2.70;;;;;;;11.55;100.00;90805.41;4958490;28;20040;-78
2023/03/10 11:37:00;;;;;;;3.40;2.08;;;;;;;11.24;100.00;90801.53;4973456;28;20458;-78
2023/03/10 11:40:12;;;;;;;3.42;2.00;;;;;;;10.81;100.00;90804.78;4973666;28;20043;-77
2023/03/10 11:43:00;;;;;;;4.28;2.20;;;;;;;10.63;100.00;90796.38;4940664;29;20046;-80
2023/03/10 11:45:42;;;;;;;5.97;3.45;;;;;;;10.46;100.00;90797.31;4958468;29;20401;-77